createdAt,value
2023-05-02T00:01:32.455Z,99.90
2023-05-02T00:03:59.671Z,99.90
2023-05-02T00:06:27.663Z,99.90
2023-05-02T00:08:54.810Z,99.90
2023-05-02T00:11:23.074Z,99.90
2023-05-02T00:13:50.362Z,99.90
2023-05-02T00:16:18.349Z,99.90
2023-05-02T00:18:45.646Z,99.90
2023-05-02T00:21:13.328Z,99.90
2023-05-02T00:23:40.611Z,99.90
2023-05-02T00:26:11.147Z,99.90
2023-05-02T00:28:38.308Z,99.90
2023-05-02T00:31:05.596Z,99.90
2023-05-02T00:33:32.798Z,99.90
2023-05-02T00:35:59.875Z,99.90
2023-05-02T00:38:27.016Z,99.90
2023-05-02T00:40:54.237Z,99.90
2023-05-02T00:43:21.386Z,99.90
2023-05-02T00:45:48.919Z,99.90
2023-05-02T00:48:18.100Z,99.90
2023-05-02T00:50:45.182Z,99.90
2023-05-02T00:53:12.276Z,99.90
2023-05-02T00:55:40.140Z,99.90
2023-05-02T00:58:12.118Z,99.90
2023-05-02T01:01:00.381Z,99.90
2023-05-02T01:03:58.757Z,99.90
2023-05-02T01:06:43.255Z,99.90
2023-05-02T01:09:31.863Z,99.90
2023-05-02T01:12:06.187Z,99.90
2023-05-02T01:14:47.023Z,99.90
2023-05-02T01:17:17.388Z,99.90
2023-05-02T01:19:51.339Z,99.90
2023-05-02T01:22:20.216Z,99.90
2023-05-02T01:25:02.782Z,99.90
2023-05-02T01:27:49.292Z,99.90
2023-05-02T01:30:19.085Z,99.90
2023-05-02T01:32:48.673Z,99.90
2023-05-02T01:35:18.296Z,99.90
2023-05-02T01:37:47.212Z,99.90
2023-05-02T01:40:20.737Z,99.90
2023-05-02T01:42:50.311Z,99.90
2023-05-02T01:45:19.124Z,99.90
2023-05-02T01:47:47.098Z,99.90
2023-05-02T01:50:19.338Z,99.90
2023-05-02T01:52:49.803Z,99.90
2023-05-02T01:55:18.461Z,99.90
2023-05-02T01:57:47.931Z,99.90
2023-05-02T02:00:18.690Z,99.90
2023-05-02T02:02:47.989Z,99.90
2023-05-02T02:05:16.169Z,99.90
2023-05-02T02:07:44.274Z,99.90
2023-05-02T02:10:11.692Z,99.90
2023-05-02T02:13:08.079Z,99.90
2023-05-02T02:15:38.231Z,99.90
2023-05-02T02:18:21.824Z,99.90
2023-05-02T02:20:51.643Z,99.90
2023-05-02T02:23:21.136Z,99.90
2023-05-02T02:25:51.131Z,99.90
2023-05-02T02:28:18.345Z,99.90
2023-05-02T02:30:45.671Z,99.90
2023-05-02T02:33:12.901Z,99.90
2023-05-02T02:35:48.440Z,99.90
2023-05-02T02:38:27.896Z,99.90
2023-05-02T02:41:12.509Z,99.90
2023-05-02T02:44:00.160Z,99.90
2023-05-02T02:46:39.538Z,99.90
2023-05-02T02:49:25.752Z,99.90
2023-05-02T02:52:11.247Z,99.90
2023-05-02T02:55:13.489Z,99.90
2023-05-02T02:58:02.632Z,99.90
2023-05-02T03:00:30.220Z,99.90
2023-05-02T03:02:58.086Z,99.90
2023-05-02T03:05:25.687Z,99.90
2023-05-02T03:07:53.051Z,99.90
2023-05-02T03:10:22.719Z,99.90
2023-05-02T03:12:49.894Z,99.90
2023-05-02T03:15:46.681Z,99.90
2023-05-02T03:18:13.876Z,98.90
2023-05-02T03:20:42.221Z,95.70
2023-05-02T03:23:09.449Z,90.90
2023-05-02T03:25:37.080Z,76.10
2023-05-02T03:28:04.384Z,68.00
2023-05-02T03:30:31.667Z,56.00
2023-05-02T03:33:00.634Z,57.60
2023-05-02T03:35:27.769Z,58.80
2023-05-02T03:37:54.866Z,55.70
2023-05-02T03:40:22.113Z,52.90
2023-05-02T03:42:49.522Z,46.00
2023-05-02T03:45:16.755Z,37.60
2023-05-02T03:47:43.845Z,29.80
2023-05-02T03:50:11.335Z,27.10
2023-05-02T03:52:38.449Z,23.30
2023-05-02T03:55:08.007Z,17.10
2023-05-02T03:57:35.177Z,12.90
2023-05-02T04:00:02.735Z,10.60
2023-05-02T04:02:53.294Z,10.60
2023-05-02T04:05:20.662Z,8.70
2023-05-02T04:07:47.822Z,8.30
2023-05-02T04:10:18.074Z,5.40
2023-05-02T04:12:45.734Z,3.50
2023-05-02T04:15:13.177Z,3.10
2023-05-02T04:17:40.401Z,4.20
2023-05-02T04:20:08.338Z,1.00
2023-05-02T04:22:35.826Z,1.00
2023-05-02T04:25:02.920Z,1.00
2023-05-02T04:27:31.595Z,1.00
2023-05-02T04:29:58.970Z,1.00
2023-05-02T04:32:27.190Z,1.00
2023-05-02T04:34:54.379Z,1.00
2023-05-02T04:37:21.488Z,1.00
2023-05-02T04:39:49.051Z,1.00
2023-05-02T04:42:16.334Z,1.00
2023-05-02T04:44:43.466Z,1.00
2023-05-02T04:47:10.586Z,1.00
2023-05-02T04:49:37.821Z,1.00
2023-05-02T04:52:05.130Z,1.00
2023-05-02T04:54:34.722Z,1.00
2023-05-02T04:57:03.687Z,1.00
2023-05-02T04:59:30.998Z,1.00
2023-05-02T05:01:58.215Z,1.00
2023-05-02T05:04:25.383Z,1.00
2023-05-02T05:06:52.485Z,1.00
2023-05-02T05:09:19.676Z,1.00
2023-05-02T05:11:46.778Z,1.00
2023-05-02T05:14:13.913Z,1.00
2023-05-02T05:16:41.053Z,1.00
2023-05-02T05:19:08.329Z,1.00
2023-05-02T05:21:35.494Z,1.00
2023-05-02T05:24:02.756Z,1.00
2023-05-02T05:26:29.888Z,1.00
2023-05-02T05:28:57.014Z,1.00
2023-05-02T05:31:24.543Z,1.00
2023-05-02T05:33:51.700Z,1.00
2023-05-02T05:36:19.150Z,1.00
2023-05-02T05:38:46.929Z,1.00
2023-05-02T05:41:14.179Z,1.00
2023-05-02T05:43:41.369Z,1.00
2023-05-02T05:46:08.485Z,1.00
2023-05-02T05:48:35.699Z,1.00
2023-05-02T05:51:06.548Z,1.00
2023-05-02T05:53:34.322Z,1.00
2023-05-02T05:56:12.362Z,1.00
2023-05-02T05:58:40.555Z,1.00
2023-05-02T06:01:08.710Z,1.00
2023-05-02T06:03:36.361Z,1.00
2023-05-02T06:06:03.847Z,1.00
2023-05-02T06:08:31.028Z,1.00
2023-05-02T06:10:58.221Z,1.00
2023-05-02T06:13:26.311Z,1.00
2023-05-02T06:15:53.607Z,1.00
2023-05-02T06:18:20.773Z,1.00
2023-05-02T06:21:06.565Z,1.00
2023-05-02T06:23:33.778Z,1.00
2023-05-02T06:26:02.029Z,1.00
2023-05-02T06:28:29.903Z,1.00
2023-05-02T06:31:02.154Z,1.00
2023-05-02T06:33:30.447Z,1.00
2023-05-02T06:35:59.187Z,1.00
2023-05-02T06:38:27.904Z,1.00
2023-05-02T06:40:55.192Z,1.00
2023-05-02T06:43:22.376Z,1.00
2023-05-02T06:45:52.420Z,1.00
2023-05-02T06:48:19.597Z,1.00
2023-05-02T06:50:46.738Z,1.00
2023-05-02T06:53:14.264Z,1.00
2023-05-02T06:55:41.514Z,1.00
2023-05-02T06:58:08.797Z,1.00
2023-05-02T07:00:35.998Z,1.00
2023-05-02T07:03:03.374Z,1.00
2023-05-02T07:05:31.279Z,1.00
2023-05-02T07:07:58.649Z,1.00
2023-05-02T07:10:26.053Z,1.00
2023-05-02T07:12:56.175Z,1.00
2023-05-02T07:15:23.357Z,1.00
2023-05-02T07:17:50.591Z,1.00
2023-05-02T07:20:18.376Z,1.00
2023-05-02T07:22:45.640Z,1.00
2023-05-02T07:25:31.327Z,1.00
2023-05-02T07:27:58.436Z,1.00
2023-05-02T07:30:44.109Z,1.00
2023-05-02T07:33:11.239Z,1.00
2023-05-02T07:35:38.443Z,1.00
2023-05-02T07:38:05.933Z,1.00
2023-05-02T07:40:33.748Z,1.00
2023-05-02T07:43:03.853Z,1.00
2023-05-02T07:45:31.015Z,1.00
2023-05-02T07:47:58.201Z,1.00
2023-05-02T07:50:26.010Z,1.00
2023-05-02T07:52:54.766Z,1.00
2023-05-02T07:55:22.202Z,1.00
2023-05-02T07:57:49.340Z,1.00
2023-05-02T08:00:17.063Z,1.00
2023-05-02T08:02:45.413Z,1.00
2023-05-02T08:05:12.733Z,1.00
2023-05-02T08:07:39.923Z,1.00
2023-05-02T08:10:08.035Z,1.00
2023-05-02T08:12:40.464Z,1.00
2023-05-02T08:15:10.510Z,1.00
2023-05-02T08:17:37.965Z,1.00
2023-05-02T08:20:05.753Z,1.00
2023-05-02T08:22:34.532Z,1.00
2023-05-02T08:25:01.687Z,1.00
2023-05-02T08:27:29.319Z,1.00
2023-05-02T08:29:58.499Z,1.00
2023-05-02T08:32:26.946Z,1.00
2023-05-02T08:34:57.471Z,1.00
2023-05-02T08:37:24.602Z,1.00
2023-05-02T08:39:51.717Z,1.00
2023-05-02T08:42:20.882Z,1.00
2023-05-02T08:44:49.391Z,1.00
2023-05-02T08:47:18.802Z,1.00
2023-05-02T08:49:46.766Z,1.00
2023-05-02T08:52:15.909Z,1.00
2023-05-02T08:54:44.911Z,1.00
2023-05-02T08:57:12.004Z,1.00
2023-05-02T08:59:39.029Z,1.00
2023-05-02T09:02:19.796Z,1.00
2023-05-02T09:04:53.148Z,1.00
2023-05-02T09:07:20.287Z,1.00
2023-05-02T09:09:47.518Z,1.00
2023-05-02T09:12:16.476Z,1.00
2023-05-02T09:14:45.203Z,1.00
2023-05-02T09:17:12.429Z,1.00
2023-05-02T09:19:39.672Z,1.00
2023-05-02T09:22:06.791Z,1.00
2023-05-02T09:24:34.589Z,1.00
2023-05-02T09:27:05.447Z,1.00
2023-05-02T09:29:39.083Z,1.00
2023-05-02T09:32:09.658Z,1.00
2023-05-02T09:34:39.095Z,1.00
2023-05-02T09:37:06.531Z,1.00
2023-05-02T09:39:33.743Z,1.00
2023-05-02T09:42:02.987Z,1.00
2023-05-02T09:44:37.893Z,1.00
2023-05-02T09:47:08.216Z,1.00
2023-05-02T09:49:46.272Z,1.00
2023-05-02T09:52:16.578Z,1.00
2023-05-02T09:54:44.379Z,1.00
2023-05-02T09:57:11.664Z,1.00
2023-05-02T09:59:52.927Z,1.00
2023-05-02T10:02:22.118Z,1.00
2023-05-02T10:04:51.620Z,1.00
2023-05-02T10:07:19.000Z,1.00
2023-05-02T10:09:48.298Z,1.00
2023-05-02T10:12:17.126Z,1.00
2023-05-02T10:14:54.242Z,1.00
2023-05-02T10:17:28.352Z,1.00
2023-05-02T10:20:04.466Z,1.00
2023-05-02T10:22:36.962Z,1.00
2023-05-02T10:25:04.892Z,1.00
2023-05-02T10:27:35.012Z,1.00
2023-05-02T10:30:04.789Z,1.00
2023-05-02T10:32:37.364Z,1.00
2023-05-02T10:35:06.451Z,1.00
2023-05-02T10:37:38.556Z,1.00
2023-05-02T10:40:11.542Z,1.00
2023-05-02T10:42:45.923Z,1.00
2023-05-02T10:45:32.456Z,1.00
2023-05-02T10:48:26.854Z,1.00
2023-05-02T10:51:00.661Z,1.00
2023-05-02T10:53:44.912Z,1.00
2023-05-02T10:56:14.152Z,1.00
2023-05-02T10:58:43.048Z,1.00
2023-05-02T11:01:26.654Z,1.00
2023-05-02T11:03:56.512Z,1.00
2023-05-02T11:06:28.073Z,1.00
2023-05-02T11:09:32.524Z,1.00
2023-05-02T11:12:02.015Z,1.00
2023-05-02T11:14:35.001Z,1.00
2023-05-02T11:17:04.458Z,1.00
2023-05-02T11:19:58.227Z,1.00
2023-05-02T11:22:27.284Z,1.00
2023-05-02T11:24:54.916Z,1.00
2023-05-02T11:27:33.977Z,1.00
2023-05-02T11:30:07.755Z,1.00
2023-05-02T11:32:48.793Z,1.00
2023-05-02T11:35:17.894Z,1.00
2023-05-02T11:37:57.878Z,1.00
2023-05-02T11:40:27.059Z,1.00
2023-05-02T11:42:55.494Z,1.00
2023-05-02T11:45:24.159Z,1.00
2023-05-02T11:47:51.651Z,1.00
2023-05-02T11:50:19.121Z,1.00
2023-05-02T11:52:46.806Z,1.00
2023-05-02T11:55:15.984Z,1.00
2023-05-02T11:57:43.308Z,1.00
2023-05-02T12:00:11.391Z,1.00
2023-05-02T12:02:44.055Z,1.00
2023-05-02T12:05:13.715Z,1.00
2023-05-02T12:07:45.323Z,1.00
2023-05-02T12:10:14.099Z,1.00
2023-05-02T12:12:43.578Z,1.00
2023-05-02T12:15:12.805Z,1.00
2023-05-02T12:17:42.853Z,1.00
2023-05-02T12:20:11.701Z,1.00
2023-05-02T12:22:39.393Z,1.00
2023-05-02T12:25:07.328Z,1.00
2023-05-02T12:27:35.353Z,1.00
2023-05-02T12:30:03.238Z,1.00
2023-05-02T12:32:34.730Z,1.00
2023-05-02T12:35:03.959Z,1.00
2023-05-02T12:37:34.159Z,1.00
2023-05-02T12:40:01.710Z,1.00
2023-05-02T12:42:34.612Z,1.00
2023-05-02T12:45:01.908Z,1.00
2023-05-02T12:47:45.699Z,1.00
2023-05-02T12:50:12.994Z,1.00
2023-05-02T12:52:47.463Z,1.00
2023-05-02T12:55:24.646Z,1.00
2023-05-02T12:57:59.963Z,1.00
2023-05-02T13:00:27.240Z,1.00
2023-05-02T13:02:54.496Z,1.00
2023-05-02T13:05:21.780Z,1.00
2023-05-02T13:07:49.090Z,1.00
2023-05-02T13:10:18.198Z,1.00
2023-05-02T13:12:47.211Z,1.00
2023-05-02T13:15:14.887Z,1.00
2023-05-02T13:17:42.553Z,1.00
2023-05-02T13:20:10.745Z,1.00
2023-05-02T13:22:37.981Z,1.00
2023-05-02T13:25:09.170Z,1.00
2023-05-02T13:27:36.399Z,1.00
2023-05-02T13:30:07.528Z,1.00
2023-05-02T13:32:36.231Z,1.00
2023-05-02T13:35:03.888Z,1.00
2023-05-02T13:37:31.508Z,1.00
2023-05-02T13:39:59.035Z,1.00
2023-05-02T13:42:26.339Z,1.00
2023-05-02T13:44:53.525Z,1.00
2023-05-02T13:47:21.690Z,1.00
2023-05-02T13:49:48.868Z,1.00
2023-05-02T13:52:16.514Z,1.00
2023-05-02T13:54:43.665Z,1.00
2023-05-02T13:57:10.793Z,1.00
2023-05-02T13:59:37.954Z,1.00
2023-05-02T14:02:05.245Z,1.00
2023-05-02T14:04:32.500Z,1.00
2023-05-02T14:06:59.689Z,1.00
2023-05-02T14:09:26.851Z,1.00
2023-05-02T14:11:53.991Z,1.00
2023-05-02T14:14:21.211Z,1.00
2023-05-02T14:16:51.567Z,1.00
2023-05-02T14:19:18.832Z,1.00
2023-05-02T14:21:46.234Z,1.00
2023-05-02T14:24:14.961Z,1.00
2023-05-02T14:26:42.155Z,1.00
2023-05-02T14:29:09.468Z,1.00
2023-05-02T14:31:36.938Z,1.00
2023-05-02T14:34:04.419Z,1.00
2023-05-02T14:36:32.692Z,1.00
2023-05-02T14:39:00.138Z,1.00
2023-05-02T14:41:27.766Z,1.00
2023-05-02T14:43:54.924Z,1.00
2023-05-02T14:46:22.200Z,1.00
2023-05-02T14:48:49.380Z,1.00
2023-05-02T14:51:16.998Z,1.00
2023-05-02T14:53:44.156Z,1.00
2023-05-02T14:56:16.129Z,1.00
2023-05-02T14:58:43.802Z,1.00
2023-05-02T15:01:21.204Z,1.00
2023-05-02T15:04:05.977Z,1.00
2023-05-02T15:06:35.250Z,1.00
2023-05-02T15:09:03.121Z,1.00
2023-05-02T15:11:30.499Z,1.00
2023-05-02T15:13:59.412Z,1.00
2023-05-02T15:16:27.538Z,1.00
2023-05-02T15:18:55.249Z,1.00
2023-05-02T15:21:23.048Z,1.00
2023-05-02T15:23:50.475Z,1.00
2023-05-02T15:26:17.857Z,1.00
2023-05-02T15:28:44.923Z,1.00
2023-05-02T15:31:12.298Z,1.00
2023-05-02T15:33:39.423Z,1.00
2023-05-02T15:36:06.907Z,1.00
2023-05-02T15:38:39.652Z,1.00
2023-05-02T15:41:08.233Z,1.00
2023-05-02T15:43:35.818Z,1.00
2023-05-02T15:46:03.169Z,1.00
2023-05-02T15:48:33.190Z,1.00
2023-05-02T15:51:01.942Z,1.00
2023-05-02T15:53:29.697Z,1.00
2023-05-02T15:55:57.305Z,1.00
2023-05-02T15:58:24.465Z,1.00
2023-05-02T16:00:52.681Z,1.00
2023-05-02T16:03:20.292Z,1.00
2023-05-02T16:05:47.722Z,1.00
2023-05-02T16:08:14.806Z,1.00
2023-05-02T16:10:43.599Z,1.00
2023-05-02T16:13:11.081Z,1.00
2023-05-02T16:15:39.202Z,1.00
2023-05-02T16:18:06.622Z,1.00
2023-05-02T16:20:36.743Z,1.00
2023-05-02T16:23:04.625Z,1.00
2023-05-02T16:25:32.024Z,1.00
2023-05-02T16:27:59.247Z,1.00
2023-05-02T16:30:28.222Z,1.00
2023-05-02T16:32:55.830Z,1.00
2023-05-02T16:35:23.030Z,1.00
2023-05-02T16:37:50.161Z,1.00
2023-05-02T16:40:17.741Z,1.00
2023-05-02T16:42:45.032Z,1.00
2023-05-02T16:45:12.318Z,1.00
2023-05-02T16:47:39.428Z,1.00
2023-05-02T16:50:08.104Z,1.00
2023-05-02T16:52:37.574Z,1.00
2023-05-02T16:55:05.524Z,1.00
2023-05-02T16:57:33.226Z,1.00
2023-05-02T17:00:00.990Z,1.00
2023-05-02T17:02:33.813Z,1.00
2023-05-02T17:05:01.214Z,1.00
2023-05-02T17:07:28.847Z,1.00
2023-05-02T17:09:56.600Z,1.00
2023-05-02T17:12:23.778Z,1.00
2023-05-02T17:14:51.855Z,1.00
2023-05-02T17:17:22.811Z,1.00
2023-05-02T17:19:51.487Z,1.00
2023-05-02T17:22:19.226Z,1.00
2023-05-02T17:24:49.579Z,1.00
2023-05-02T17:27:16.754Z,1.00
2023-05-02T17:29:43.883Z,1.00
2023-05-02T17:32:11.667Z,1.00
2023-05-02T17:34:38.978Z,1.00
2023-05-02T17:37:07.414Z,1.00
2023-05-02T17:39:34.702Z,1.00
2023-05-02T17:42:01.766Z,1.00
2023-05-02T17:44:31.578Z,1.00
2023-05-02T17:46:59.389Z,1.00
2023-05-02T17:49:26.737Z,1.00
2023-05-02T17:51:53.862Z,1.00
2023-05-02T17:54:21.209Z,1.00
2023-05-02T17:56:48.392Z,1.00
2023-05-02T17:59:16.031Z,1.00
2023-05-02T18:01:43.231Z,1.00
2023-05-02T18:04:12.991Z,1.00
2023-05-02T18:06:40.869Z,1.00
2023-05-02T18:09:09.007Z,1.00
2023-05-02T18:11:36.554Z,1.00
2023-05-02T18:14:06.165Z,1.00
2023-05-02T18:16:34.685Z,1.00
2023-05-02T18:19:02.078Z,1.00
2023-05-02T18:21:35.491Z,1.00
2023-05-02T18:24:02.825Z,1.00
2023-05-02T18:26:29.946Z,1.00
2023-05-02T18:28:57.483Z,1.00
2023-05-02T18:31:24.660Z,1.00
2023-05-02T18:33:53.906Z,1.00
2023-05-02T18:36:25.844Z,1.00
2023-05-02T18:38:53.936Z,1.00
2023-05-02T18:41:21.099Z,1.00
2023-05-02T18:43:48.343Z,1.00
2023-05-02T18:46:15.678Z,1.00
2023-05-02T18:48:43.561Z,1.00
2023-05-02T18:51:12.397Z,1.00
2023-05-02T18:53:39.613Z,1.00
2023-05-02T18:56:13.829Z,1.00
2023-05-02T18:58:42.198Z,1.00
2023-05-02T19:01:15.111Z,1.00
2023-05-02T19:03:43.789Z,1.00
2023-05-02T19:06:11.387Z,1.00
2023-05-02T19:08:57.156Z,1.00
2023-05-02T19:11:24.548Z,1.00
2023-05-02T19:13:51.881Z,1.00
2023-05-02T19:16:20.858Z,1.00
2023-05-02T19:18:51.780Z,1.00
2023-05-02T19:21:18.922Z,1.00
2023-05-02T19:23:46.409Z,1.00
2023-05-02T19:26:17.768Z,1.00
2023-05-02T19:28:45.471Z,1.00
2023-05-02T19:31:19.487Z,1.00
2023-05-02T19:33:52.407Z,1.00
2023-05-02T19:36:21.992Z,1.00
2023-05-02T19:38:51.343Z,1.00
2023-05-02T19:41:25.637Z,1.00
2023-05-02T19:44:00.241Z,1.00
2023-05-02T19:46:30.782Z,1.00
2023-05-02T19:49:00.929Z,1.00
2023-05-02T19:51:34.041Z,1.00
2023-05-02T19:54:02.037Z,1.00
2023-05-02T19:56:30.370Z,1.00
2023-05-02T19:58:59.077Z,1.00
2023-05-02T20:01:29.649Z,1.00
2023-05-02T20:04:01.932Z,1.00
2023-05-02T20:06:33.907Z,1.00
2023-05-02T20:09:04.567Z,1.00
2023-05-02T20:11:33.276Z,1.00
2023-05-02T20:14:04.259Z,1.00
2023-05-02T20:16:38.832Z,1.00
2023-05-02T20:19:07.668Z,1.00
2023-05-02T20:21:37.991Z,1.00
2023-05-02T20:24:09.581Z,1.00
2023-05-02T20:26:40.515Z,1.00
2023-05-02T20:29:22.311Z,1.00
2023-05-02T20:32:12.088Z,1.00
2023-05-02T20:34:50.448Z,1.00
2023-05-02T20:40:26.438Z,1.00
2023-05-02T20:43:08.996Z,1.00
2023-05-02T20:45:53.959Z,1.00
2023-05-02T20:48:24.282Z,1.00
2023-05-02T20:51:05.620Z,1.00
2023-05-02T20:53:33.672Z,1.00
2023-05-02T20:56:01.503Z,1.00
2023-05-02T20:58:42.975Z,1.00
2023-05-02T21:01:23.650Z,1.00
2023-05-02T21:03:57.493Z,1.00
2023-05-02T21:06:25.307Z,1.00
2023-05-02T21:08:55.604Z,1.00
2023-05-02T21:11:23.330Z,1.00
2023-05-02T21:13:51.328Z,1.00
2023-05-02T21:16:21.071Z,1.00
2023-05-02T21:18:56.110Z,1.00
2023-05-02T21:21:24.224Z,1.00
2023-05-02T21:23:55.912Z,1.00
2023-05-02T21:26:23.532Z,1.00
2023-05-02T21:28:52.574Z,1.00
2023-05-02T21:31:20.229Z,1.00
2023-05-02T21:33:48.123Z,1.00
2023-05-02T21:36:16.049Z,1.00
2023-05-02T21:38:43.676Z,1.00
2023-05-02T21:41:11.436Z,1.00
2023-05-02T21:43:40.580Z,1.00
2023-05-02T21:46:11.580Z,1.00
2023-05-02T21:48:39.717Z,1.00
2023-05-02T21:51:12.141Z,1.00
2023-05-02T21:53:40.592Z,1.00
2023-05-02T21:56:09.040Z,1.00
2023-05-02T21:58:36.885Z,1.00
2023-05-02T22:01:04.908Z,1.00
2023-05-02T22:03:33.975Z,1.00
2023-05-02T22:06:06.697Z,1.00
2023-05-02T22:08:34.550Z,1.00
2023-05-02T22:11:08.236Z,1.00
2023-05-02T22:13:37.049Z,1.00
2023-05-02T22:16:04.833Z,1.00
2023-05-02T22:18:32.400Z,1.00
2023-05-02T22:21:01.797Z,1.00
2023-05-02T22:23:31.294Z,1.00
2023-05-02T22:25:59.135Z,1.00
2023-05-02T22:28:27.226Z,1.00
2023-05-02T22:30:55.099Z,1.00
2023-05-02T22:33:22.723Z,1.00
2023-05-02T22:35:50.240Z,1.00
2023-05-02T22:38:19.824Z,1.00
2023-05-02T22:40:47.695Z,1.00
2023-05-02T22:43:15.938Z,1.00
2023-05-02T22:45:43.460Z,1.00
2023-05-02T22:48:11.960Z,1.00
2023-05-02T22:50:39.687Z,1.00
2023-05-02T22:53:09.676Z,1.00
2023-05-02T22:55:38.751Z,1.00
2023-05-02T22:58:06.369Z,1.00
2023-05-02T23:00:34.067Z,1.00
2023-05-02T23:03:02.948Z,1.00
2023-05-02T23:05:30.471Z,1.00
2023-05-02T23:07:58.256Z,1.00
2023-05-02T23:10:25.763Z,1.00
2023-05-02T23:12:53.434Z,1.00
2023-05-02T23:15:21.049Z,1.00
2023-05-02T23:17:49.365Z,1.00
2023-05-02T23:20:19.948Z,1.00
2023-05-02T23:22:47.457Z,1.00
2023-05-02T23:25:15.656Z,1.00
2023-05-02T23:27:43.474Z,1.00
2023-05-02T23:30:11.836Z,1.00
2023-05-02T23:32:39.683Z,1.00
2023-05-02T23:35:07.898Z,1.00
2023-05-02T23:37:35.688Z,1.00
2023-05-02T23:40:03.747Z,1.00
2023-05-02T23:42:34.694Z,1.00
2023-05-02T23:45:02.444Z,1.00
2023-05-02T23:47:32.288Z,1.00
2023-05-02T23:50:00.446Z,1.00
2023-05-02T23:52:28.453Z,1.00
2023-05-02T23:54:56.017Z,1.00
2023-05-02T23:57:23.899Z,1.00
2023-05-02T23:59:51.793Z,1.00
